Time;durP1;ratioP1;P1;durP2;ratioP2;P2;SDS_P1;SDS_P2;PMS_P1;PMS_P2;Temp;Humidity;BMP_temperature;BMP_pressure;BME280_temperature;BME280_humidity;BME280_pressure;Samples;Min_cycle;Max_cycle;Signal;HPM_P1;HPM_P2
2022/07/23 00:01:33;;;;;;;14.13;9.65;;;;;;;19.06;76.32;99392.84;8459689;28;20076;-73
2022/07/23 00:05:35;;;;;;;18.27;9.63;;;;;;;19.00;76.61;99392.34;8447907;28;20404;-74
2022/07/23 00:09:36;;;;;;;13.77;9.90;;;;;;;19.03;76.38;99385.38;8410464;28;20151;-73
2022/07/23 00:13:37;;;;;;;15.25;10.13;;;;;;;19.02;76.38;99383.78;8451663;28;20052;-74
2022/07/23 00:17:37;;;;;;;17.40;9.98;;;;;;;18.97;76.47;99382.91;8442847;28;20046;-73
2022/07/23 00:21:38;;;;;;;23.98;9.23;;;;;;;18.94;76.49;99378.16;8456875;28;20151;-73
2022/07/23 00:25:39;;;;;;;12.85;9.10;;;;;;;18.97;76.45;99388.38;8436630;28;20043;-74
2022/07/23 00:29:40;;;;;;;12.07;9.20;;;;;;;18.95;76.30;99385.22;8447498;28;20063;-73
2022/07/23 00:33:41;;;;;;;15.02;8.95;;;;;;;18.98;76.42;99387.22;8456596;28;20040;-73
2022/07/23 00:37:42;;;;;;;12.93;9.52;;;;;;;19.02;76.11;99378.31;8455601;28;20478;-74
2022/07/23 00:41:43;;;;;;;16.45;9.77;;;;;;;19.03;76.24;99386.16;8405251;28;20051;-73
2022/07/23 00:45:44;;;;;;;15.38;9.15;;;;;;;19.04;76.28;99387.72;8440309;28;20122;-74
2022/07/23 00:49:45;;;;;;;12.65;8.98;;;;;;;19.02;76.27;99389.25;8448330;28;20040;-73
2022/07/23 00:53:46;;;;;;;13.98;9.00;;;;;;;18.98;76.19;99387.22;8437413;28;20052;-73
2022/07/23 00:57:47;;;;;;;13.05;9.18;;;;;;;18.92;76.41;99385.13;8445750;27;20131;-74
2022/07/23 01:01:48;;;;;;;13.95;9.43;;;;;;;18.85;76.48;99377.56;8456537;28;20096;-74
2022/07/23 01:05:49;;;;;;;13.25;9.05;;;;;;;18.78;76.68;99384.78;8464219;28;20054;-73
2022/07/23 01:09:51;;;;;;;12.93;9.70;;;;;;;18.73;76.87;99377.66;8455942;28;20104;-74
2022/07/23 01:13:53;;;;;;;16.00;9.20;;;;;;;18.70;76.92;99383.84;8452512;28;20104;-73
2022/07/23 01:17:54;;;;;;;14.85;9.48;;;;;;;18.64;77.43;99389.94;8410445;28;20040;-74
2022/07/23 01:21:57;;;;;;;15.38;9.70;;;;;;;18.61;77.71;99391.47;8430169;28;20459;-74
2022/07/23 01:25:58;;;;;;;19.40;9.88;;;;;;;18.58;77.58;99392.16;8446295;28;20044;-74
2022/07/23 01:30:04;;;;;;;18.95;10.23;;;;;;;18.51;77.86;99386.47;8399901;28;20164;-73
2022/07/23 01:34:06;;;;;;;16.42;10.00;;;;;;;18.47;78.32;99391.06;8438572;28;20040;-73
2022/07/23 01:38:07;;;;;;;12.25;9.25;;;;;;;18.41;78.74;99392.50;8394754;28;20043;-73
2022/07/23 01:42:08;;;;;;;14.95;8.80;;;;;;;18.35;78.75;99388.44;8449481;28;20039;-74
2022/07/23 01:46:10;;;;;;;12.90;10.10;;;;;;;18.28;78.83;99377.34;8446818;28;20055;-74
2022/07/23 01:50:11;;;;;;;18.02;9.95;;;;;;;18.22;79.22;99389.66;8455510;28;20051;-73
2022/07/23 01:54:12;;;;;;;13.88;10.23;;;;;;;18.18;79.57;99372.41;8436166;28;20051;-73
2022/07/23 01:58:13;;;;;;;17.67;10.27;;;;;;;18.13;79.70;99371.53;8441896;28;20043;-74
2022/07/23 02:02:13;;;;;;;17.38;10.35;;;;;;;18.10;79.71;99388.59;8413308;28;20084;-74
2022/07/23 02:06:15;;;;;;;14.68;10.30;;;;;;;18.07;80.02;99383.84;8462240;28;20031;-73
2022/07/23 02:10:15;;;;;;;14.85;10.18;;;;;;;18.04;79.71;99381.81;8455557;28;20531;-73
2022/07/23 02:14:16;;;;;;;17.17;10.48;;;;;;;18.00;80.13;99372.72;8404381;28;20430;-73
2022/07/23 02:18:17;;;;;;;14.48;10.20;;;;;;;17.94;80.61;99368.66;8441894;28;20063;-74
2022/07/23 02:22:18;;;;;;;16.02;10.43;;;;;;;17.92;80.49;99368.25;8449002;28;20035;-74
2022/07/23 02:26:19;;;;;;;15.93;10.20;;;;;;;17.91;80.72;99358.44;8454549;28;20130;-73
2022/07/23 02:30:23;;;;;;;15.40;10.90;;;;;;;17.93;80.76;99358.88;8408843;28;20043;-73
2022/07/23 02:34:24;;;;;;;16.60;10.50;;;;;;;17.97;80.80;99351.59;8454704;28;20052;-73
2022/07/23 02:38:25;;;;;;;13.48;9.23;;;;;;;18.03;80.88;99350.16;8449811;28;20067;-73
2022/07/23 02:42:26;;;;;;;12.20;9.60;;;;;;;18.21;80.04;99358.00;8448804;28;20487;-73
2022/07/23 02:46:27;;;;;;;13.13;9.60;;;;;;;18.34;79.85;99359.53;8442510;28;20080;-74
2022/07/23 02:50:28;;;;;;;13.13;9.70;;;;;;;18.45;79.42;99349.63;8444498;28;20051;-74
2022/07/23 02:54:29;;;;;;;11.80;8.85;;;;;;;18.57;79.21;99352.28;8414287;28;20327;-74
2022/07/23 02:58:30;;;;;;;10.93;8.82;;;;;;;18.67;78.79;99351.72;8439455;28;20350;-73
2022/07/23 03:02:31;;;;;;;13.68;8.68;;;;;;;18.75;78.75;99337.06;8439616;28;20047;-73
2022/07/23 03:06:32;;;;;;;12.85;8.77;;;;;;;18.84;78.35;99329.44;8429093;28;20071;-73
2022/07/23 03:10:33;;;;;;;13.70;7.70;;;;;;;18.96;77.93;99321.13;8450742;28;20052;-74
2022/07/23 03:14:34;;;;;;;12.40;8.45;;;;;;;19.03;77.53;99322.41;8457776;28;20078;-74
2022/07/23 03:18:35;;;;;;;12.50;7.72;;;;;;;19.16;77.25;99334.81;8449099;28;20031;-73
2022/07/23 03:22:36;;;;;;;8.50;7.13;;;;;;;19.18;77.08;99327.03;8439954;28;20043;-73
2022/07/23 03:26:37;;;;;;;11.60;7.55;;;;;;;19.19;76.86;99334.09;8443287;28;20388;-73
2022/07/23 03:30:38;;;;;;;12.65;7.47;;;;;;;19.22;77.03;99334.16;8393049;28;20068;-73
2022/07/23 03:34:39;;;;;;;8.38;7.45;;;;;;;19.22;77.43;99349.78;8429600;28;20096;-74
2022/07/23 03:38:40;;;;;;;10.05;7.95;;;;;;;19.16;77.60;99351.22;8400011;28;20383;-74
2022/07/23 03:42:42;;;;;;;12.98;7.38;;;;;;;19.15;77.73;99349.63;8452457;28;20070;-74
2022/07/23 03:46:42;;;;;;;12.05;7.88;;;;;;;19.15;78.08;99349.63;8455104;28;20135;-74
2022/07/23 03:50:44;;;;;;;12.02;8.52;;;;;;;19.16;78.62;99351.22;8454871;28;20059;-74
2022/07/23 03:54:47;;;;;;;15.70;8.73;;;;;;;19.18;78.93;99354.41;8452184;28;21601;-74
2022/07/23 03:58:48;;;;;;;9.80;8.07;;;;;;;19.21;79.31;99351.72;8452247;28;20058;-73
2022/07/23 04:02:49;;;;;;;10.50;8.05;;;;;;;19.26;79.59;99347.91;8466325;28;20055;-74
2022/07/23 04:06:50;;;;;;;11.07;8.57;;;;;;;19.29;79.98;99355.44;8434653;28;20048;-73
2022/07/23 04:10:51;;;;;;;9.40;8.23;;;;;;;19.31;80.24;99350.38;8450052;28;20054;-74
2022/07/23 04:14:52;;;;;;;12.80;8.30;;;;;;;19.36;80.49;99355.56;8448439;28;20067;-74
2022/07/23 04:18:53;;;;;;;11.48;8.25;;;;;;;19.42;80.60;99338.47;8437546;28;20067;-74
2022/07/23 04:22:54;;;;;;;11.70;7.40;;;;;;;19.53;80.07;99338.72;8433070;28;20072;-74
2022/07/23 04:26:55;;;;;;;10.75;7.18;;;;;;;19.67;79.37;99343.69;8394799;28;20135;-73
2022/07/23 04:30:57;;;;;;;12.32;7.47;;;;;;;19.80;78.78;99326.69;8419287;28;20055;-73
2022/07/23 04:34:58;;;;;;;12.23;6.95;;;;;;;19.96;78.16;99328.53;8435128;28;20048;-72
2022/07/23 04:38:59;;;;;;;9.35;6.70;;;;;;;20.10;77.83;99323.28;8438132;28;20056;-73
2022/07/23 04:43:00;;;;;;;11.60;7.10;;;;;;;20.21;77.03;99324.25;8453909;28;20464;-73
2022/07/23 04:47:01;;;;;;;10.40;7.43;;;;;;;20.35;76.56;99313.56;8447295;28;20055;-72
2022/07/23 04:51:02;;;;;;;10.82;6.85;;;;;;;20.49;76.34;99313.75;8454448;28;20410;-72
2022/07/23 04:55:03;;;;;;;9.60;7.00;;;;;;;20.67;75.70;99309.31;8457337;28;20051;-75
2022/07/23 04:59:04;;;;;;;8.90;6.65;;;;;;;20.85;75.28;99289.53;8458404;28;21418;-74
2022/07/23 05:03:05;;;;;;;12.23;6.60;;;;;;;21.02;74.89;99286.25;8461288;28;20391;-74
2022/07/23 05:07:06;;;;;;;10.57;6.68;;;;;;;21.15;74.21;99290.34;8415227;28;20143;-74
2022/07/23 05:11:07;;;;;;;14.00;7.07;;;;;;;21.24;73.70;99282.63;8437394;28;20055;-74
2022/07/23 05:15:08;;;;;;;7.97;6.53;;;;;;;21.39;73.02;99272.56;8450317;28;20047;-74
2022/07/23 05:19:09;;;;;;;8.50;7.05;;;;;;;21.52;72.35;99264.88;8435007;28;20044;-74
2022/07/23 05:23:10;;;;;;;15.27;7.30;;;;;;;21.56;72.25;99268.44;8437405;28;20047;-74
2022/07/23 05:27:11;;;;;;;9.68;7.40;;;;;;;21.61;72.05;99262.59;8447968;28;20059;-75
2022/07/23 05:31:12;;;;;;;11.88;7.70;;;;;;;21.67;71.85;99263.81;8439974;28;20063;-75
2022/07/23 05:35:14;;;;;;;9.93;7.90;;;;;;;21.76;71.80;99247.81;8441949;28;20046;-74
2022/07/23 05:39:15;;;;;;;12.50;7.70;;;;;;;21.84;71.17;99238.44;8444868;28;20040;-74
2022/07/23 05:43:17;;;;;;;11.00;7.55;;;;;;;21.89;70.94;99235.31;8443772;28;20439;-75
2022/07/23 05:47:17;;;;;;;12.02;8.27;;;;;;;21.97;70.85;99236.22;8446023;28;20135;-72
2022/07/23 05:51:21;;;;;;;12.25;8.32;;;;;;;22.04;70.65;99237.06;8443079;28;20125;-73
2022/07/23 05:55:22;;;;;;;13.18;8.10;;;;;;;22.17;69.71;99235.59;8438961;28;20130;-74
2022/07/23 05:59:23;;;;;;;9.90;7.82;;;;;;;22.29;70.01;99232.53;8416467;28;20101;-74
2022/07/23 06:03:24;;;;;;;12.60;7.88;;;;;;;22.44;69.50;99238.09;8460764;27;20138;-75
2022/07/23 06:07:25;;;;;;;11.82;8.30;;;;;;;22.57;69.38;99242.13;8458268;28;20058;-75
2022/07/23 06:11:26;;;;;;;12.75;8.48;;;;;;;22.68;69.08;99234.72;8392371;28;20051;-75
2022/07/23 06:15:30;;;;;;;14.88;8.13;;;;;;;22.78;68.80;99236.75;8446654;28;20073;-74
2022/07/23 06:19:31;;;;;;;13.63;8.90;;;;;;;22.90;68.44;99255.66;8449419;27;20054;-74
2022/07/23 06:23:32;;;;;;;11.98;8.45;;;;;;;22.99;68.48;99247.84;8458634;27;20130;-74
2022/07/23 06:27:33;;;;;;;10.95;8.57;;;;;;;23.03;68.65;99248.66;8453900;27;20067;-74
2022/07/23 06:31:34;;;;;;;16.17;8.57;;;;;;;23.03;68.83;99253.38;8446050;28;20046;-74
2022/07/23 06:35:38;;;;;;;14.07;8.93;;;;;;;22.98;69.40;99246.28;8438396;28;20088;-76
2022/07/23 06:39:39;;;;;;;12.07;8.55;;;;;;;22.95;69.87;99240.72;8426907;28;20051;-75
2022/07/23 06:43:40;;;;;;;10.73;8.65;;;;;;;22.95;70.03;99233.25;8386636;28;20135;-74
2022/07/23 06:47:41;;;;;;;12.68;9.30;;;;;;;23.04;70.01;99228.19;8437021;28;20105;-75
2022/07/23 06:51:45;;;;;;;13.10;9.10;;;;;;;23.22;69.55;99222.72;8439479;28;20052;-74
2022/07/23 06:55:46;;;;;;;15.48;8.40;;;;;;;23.30;69.51;99218.03;8438281;28;20051;-74
2022/07/23 06:59:47;;;;;;;17.70;8.63;;;;;;;23.32;69.05;99221.19;8460720;28;20070;-74
2022/07/23 07:03:48;;;;;;;11.13;8.65;;;;;;;23.31;68.73;99225.13;8463826;28;20048;-75
2022/07/23 07:07:49;;;;;;;15.95;8.38;;;;;;;23.33;68.62;99217.22;8467965;28;20062;-75
2022/07/23 07:11:50;;;;;;;12.88;8.88;;;;;;;23.46;68.50;99226.75;8466896;27;20123;-75
2022/07/23 07:15:51;;;;;;;11.32;8.63;;;;;;;23.61;67.55;99222.81;8446227;28;20568;-74
2022/07/23 07:19:52;;;;;;;11.77;9.00;;;;;;;23.78;67.13;99205.50;8467823;28;20127;-74
2022/07/23 07:23:53;;;;;;;14.60;8.90;;;;;;;23.96;66.44;99217.28;8466419;28;20051;-75
2022/07/23 07:27:54;;;;;;;14.15;8.43;;;;;;;24.15;66.20;99207.03;8419613;28;20048;-75
2022/07/23 07:31:54;;;;;;;12.32;8.52;;;;;;;24.33;66.30;99213.31;8433327;28;20075;-74
2022/07/23 07:35:55;;;;;;;19.75;8.02;;;;;;;24.49;66.27;99216.44;8450422;28;20174;-75
2022/07/23 07:39:56;;;;;;;13.50;8.45;;;;;;;24.59;64.77;99214.81;8448947;28;20131;-74
2022/07/23 07:43:58;;;;;;;11.63;9.00;;;;;;;24.59;64.40;99207.34;8446212;28;20036;-74
2022/07/23 07:47:58;;;;;;;11.50;9.02;;;;;;;24.69;64.95;99214.03;8433109;28;20579;-74
2022/07/23 07:51:59;;;;;;;13.25;8.55;;;;;;;24.74;64.16;99199.81;8418613;28;20050;-74
2022/07/23 07:56:00;;;;;;;14.98;10.15;;;;;;;24.74;63.44;99200.59;8439988;28;20052;-75
2022/07/23 08:00:02;;;;;;;16.10;10.27;;;;;;;24.79;62.55;99202.94;8460932;28;20093;-74
2022/07/23 08:04:03;;;;;;;18.90;11.05;;;;;;;24.86;62.26;99206.84;8463496;28;20104;-75
2022/07/23 08:08:04;;;;;;;13.10;8.77;;;;;;;25.01;62.22;99191.81;8453661;28;20047;-74
2022/07/23 08:12:05;;;;;;;21.73;9.18;;;;;;;25.15;62.63;99192.50;8458110;28;20051;-74
2022/07/23 08:16:06;;;;;;;14.13;9.73;;;;;;;25.33;62.84;99186.84;8465349;28;20036;-76
2022/07/23 08:20:08;;;;;;;15.65;9.23;;;;;;;25.50;61.35;99197.00;8464814;28;20398;-74
2022/07/23 08:24:09;;;;;;;15.25;9.43;;;;;;;25.56;60.43;99195.41;8447345;28;20043;-75
2022/07/23 08:28:12;;;;;;;13.85;9.25;;;;;;;25.71;60.34;99189.75;8387228;28;20458;-74
2022/07/23 08:32:13;;;;;;;16.83;9.82;;;;;;;25.82;59.40;99196.00;8456765;28;20055;-74
2022/07/23 08:36:14;;;;;;;16.25;9.32;;;;;;;25.87;59.95;99190.03;8465544;28;20059;-74
2022/07/23 08:40:15;;;;;;;14.73;8.55;;;;;;;26.09;59.83;99199.69;8447071;28;20040;-74
2022/07/23 08:44:16;;;;;;;12.82;8.60;;;;;;;26.33;58.69;99198.69;8464378;28;20078;-76
2022/07/23 08:48:22;;;;;;;18.40;9.15;;;;;;;26.60;58.99;99200.75;8445553;28;20056;-77
2022/07/23 08:52:24;;;;;;;17.15;9.02;;;;;;;26.63;58.18;99199.94;8452208;28;20122;-76
2022/07/23 08:56:25;;;;;;;16.48;8.55;;;;;;;26.62;57.01;99192.81;8432890;28;20123;-77
2022/07/23 09:00:27;;;;;;;11.80;8.82;;;;;;;26.69;56.24;99198.28;8437401;28;20502;-76
2022/07/23 09:04:28;;;;;;;13.80;8.45;;;;;;;26.83;56.13;99187.81;8442327;28;20046;-76
2022/07/23 09:08:38;;;;;;;16.48;9.85;;;;;;;26.97;55.20;99195.16;8431807;28;20043;-76
2022/07/23 09:12:39;;;;;;;12.52;9.63;;;;;;;26.90;55.50;99198.06;8438613;28;20048;-76
2022/07/23 09:16:43;;;;;;;15.32;9.30;;;;;;;26.76;56.20;99203.72;8430596;28;20048;-75
2022/07/23 09:20:45;;;;;;;16.15;9.68;;;;;;;26.65;56.75;99208.63;8434997;28;20040;-75
2022/07/23 09:25:05;;;;;;;12.45;8.90;;;;;;;26.44;56.79;99204.88;8434200;28;20070;-75
2022/07/23 09:29:21;;;;;;;13.85;8.65;;;;;;;26.30;57.49;99221.66;8391685;28;20127;-75
2022/07/23 09:33:25;;;;;;;12.15;8.85;;;;;;;26.18;56.99;99241.50;8449026;28;20046;-75
2022/07/23 09:37:26;;;;;;;11.77;8.63;;;;;;;26.12;57.33;99259.75;8411429;28;20063;-76
2022/07/23 09:41:34;;;;;;;16.25;9.43;;;;;;;26.12;57.52;99254.22;8438224;28;20123;-75
2022/07/23 09:45:35;;;;;;;16.27;8.95;;;;;;;26.18;57.18;99241.50;8445213;28;20047;-76
2022/07/23 09:49:36;;;;;;;15.48;9.27;;;;;;;26.27;57.40;99247.41;8421267;28;20489;-75
2022/07/23 09:53:37;;;;;;;14.48;8.68;;;;;;;26.32;56.24;99251.72;8460277;28;20097;-75
2022/07/23 09:57:40;;;;;;;21.25;9.48;;;;;;;26.16;56.87;99238.38;8452505;28;20105;-75
2022/07/23 10:01:41;;;;;;;12.82;8.82;;;;;;;26.02;57.07;99244.03;8451392;28;20054;-75
2022/07/23 10:05:43;;;;;;;13.25;8.73;;;;;;;25.85;59.21;99239.47;8460272;28;20126;-75
2022/07/23 10:09:47;;;;;;;10.80;8.63;;;;;;;25.60;59.19;99245.94;8455317;28;20044;-75
2022/07/23 10:13:54;;;;;;;15.38;8.23;;;;;;;25.33;59.75;99264.25;8433123;28;20040;-75
2022/07/23 10:18:19;;;;;;;13.63;8.85;;;;;;;25.01;60.76;99313.38;8411073;28;20548;-74
2022/07/23 10:22:23;;;;;;;10.75;8.95;;;;;;;24.77;61.01;99332.34;8422957;28;20067;-75
2022/07/23 10:27:01;;;;;;;22.20;11.38;;;;;;;24.05;69.61;99351.31;8428894;28;20036;-76
2022/07/23 10:31:13;;;;;;;23.85;12.55;;;;;;;23.07;74.65;99318.31;8318485;28;20041;-75
2022/07/23 10:35:29;;;;;;;24.08;12.85;;;;;;;22.70;76.08;99295.66;8313843;28;20420;-75
2022/07/23 10:39:33;;;;;;;23.10;12.82;;;;;;;22.57;78.56;99308.97;8324972;28;20049;-74
2022/07/23 10:43:35;;;;;;;27.25;14.23;;;;;;;22.35;80.38;99289.94;8291603;28;20064;-74
2022/07/23 10:47:42;;;;;;;27.75;13.77;;;;;;;22.17;82.18;99279.59;8314970;28;20072;-74
2022/07/23 10:52:16;;;;;;;24.00;13.25;;;;;;;22.20;82.23;99267.84;8314645;28;20054;-75
2022/07/23 10:56:37;;;;;;;20.83;10.63;;;;;;;22.06;83.41;99256.72;8310411;28;20061;-74
2022/07/23 11:00:40;;;;;;;17.65;11.25;;;;;;;21.94;83.94;99251.53;8290713;28;21895;-74
2022/07/23 11:04:51;;;;;;;19.75;10.88;;;;;;;21.83;85.01;99242.38;8326072;28;20056;-74
2022/07/23 11:09:23;;;;;;;17.05;10.38;;;;;;;21.78;84.77;99251.75;8443690;28;20047;-73
2022/07/23 11:13:29;;;;;;;14.52;10.20;;;;;;;21.58;85.87;99290.81;8459966;28;20050;-74
2022/07/23 11:17:32;;;;;;;17.50;9.88;;;;;;;21.44;85.87;99270.28;8441883;28;20047;-74
2022/07/23 11:21:36;;;;;;;14.27;9.30;;;;;;;21.38;86.36;99255.28;8460496;28;20051;-79
2022/07/23 11:25:38;;;;;;;20.95;9.88;;;;;;;21.54;85.15;99262.50;8419165;28;20071;-75
2022/07/23 11:29:40;;;;;;;12.90;10.25;;;;;;;21.47;85.58;99253.03;8469154;28;20075;-75
2022/07/23 11:33:41;;;;;;;14.45;9.82;;;;;;;21.58;85.21;99261.38;8425402;28;20055;-75
2022/07/23 11:37:47;;;;;;;18.15;10.95;;;;;;;21.57;85.43;99245.28;8447382;28;20489;-76
2022/07/23 11:41:48;;;;;;;19.08;11.77;;;;;;;21.56;86.72;99251.94;8450718;28;20123;-75
2022/07/23 11:45:53;;;;;;;18.00;11.38;;;;;;;21.59;87.16;99242.94;8456766;28;20051;-75
2022/07/23 11:49:56;;;;;;;17.77;12.32;;;;;;;21.69;86.52;99233.97;8454658;28;20048;-74
2022/07/23 11:54:06;;;;;;;20.15;12.63;;;;;;;21.71;87.00;99228.91;8436412;28;20482;-75
2022/07/23 11:58:07;;;;;;;15.35;11.68;;;;;;;21.72;87.15;99225.00;8393777;28;20048;-75
2022/07/23 12:02:08;;;;;;;19.92;13.23;;;;;;;21.67;88.10;99236.34;8449305;28;20055;-75
2022/07/23 12:06:09;;;;;;;22.67;13.60;;;;;;;21.78;88.09;99212.50;8430705;28;20055;-75
2022/07/23 12:10:14;;;;;;;16.20;12.75;;;;;;;21.89;87.97;99208.63;8438088;28;20056;-74
2022/07/23 12:14:15;;;;;;;20.65;11.93;;;;;;;22.08;87.61;99207.63;8446013;28;20047;-75
2022/07/23 12:18:19;;;;;;;16.83;11.95;;;;;;;22.17;87.44;99208.06;8405130;27;20094;-75
2022/07/23 12:22:21;;;;;;;15.88;12.13;;;;;;;22.40;86.51;99193.28;8460471;28;20055;-74
2022/07/23 12:26:22;;;;;;;20.58;11.82;;;;;;;22.69;85.65;99197.72;8420639;28;20044;-73
2022/07/23 12:30:26;;;;;;;16.63;11.40;;;;;;;23.01;85.29;99190.41;8444624;28;20044;-74
2022/07/23 12:34:26;;;;;;;17.05;12.13;;;;;;;23.45;83.70;99183.78;8454820;28;20149;-75
2022/07/23 12:38:35;;;;;;;13.48;11.35;;;;;;;23.73;83.65;99194.88;8443937;28;20058;-74
2022/07/23 12:42:42;;;;;;;;;;;;;;;24.07;82.84;99199.94;8459180;28;20074;-76
2022/07/23 12:46:50;;;;;;;14.57;11.45;;;;;;;24.50;82.06;99211.72;8438996;28;20282;-74
2022/07/23 12:51:00;;;;;;;16.45;12.23;;;;;;;25.05;81.05;99220.22;8445461;28;20487;-75
2022/07/23 12:55:02;;;;;;;14.38;11.13;;;;;;;25.70;78.60;99221.41;8446561;28;20604;-74
2022/07/23 12:59:16;;;;;;;12.38;9.13;;;;;;;25.81;75.92;99227.63;8439619;28;20039;-75
2022/07/23 13:03:29;;;;;;;16.98;9.52;;;;;;;25.92;76.36;99222.78;8450189;28;20114;-75
2022/07/23 13:07:29;;;;;;;15.63;10.50;;;;;;;26.27;76.30;99222.50;8429820;28;20048;-76
2022/07/23 13:11:31;;;;;;;11.65;9.45;;;;;;;26.27;74.74;99222.50;8444742;28;20044;-74
2022/07/23 13:15:31;;;;;;;17.23;9.25;;;;;;;26.52;73.01;99219.47;8413942;28;20047;-74
2022/07/23 13:19:33;;;;;;;9.93;8.75;;;;;;;26.58;71.63;99219.78;8396151;28;20534;-74
2022/07/23 13:23:34;;;;;;;12.07;8.75;;;;;;;26.59;72.27;99237.97;8442738;28;20145;-74
2022/07/23 13:27:35;;;;;;;15.30;9.80;;;;;;;26.42;73.06;99251.59;8422292;28;20971;-75
2022/07/23 13:31:37;;;;;;;15.25;9.50;;;;;;;26.23;74.28;99243.88;8407887;28;20060;-74
2022/07/23 13:35:38;;;;;;;16.17;9.98;;;;;;;26.02;75.26;99232.97;8454089;28;20044;-74
2022/07/23 13:39:39;;;;;;;13.10;9.55;;;;;;;26.04;76.43;99225.06;8458702;28;20047;-75
2022/07/23 13:43:40;;;;;;;12.30;9.82;;;;;;;26.39;73.98;99213.66;8435799;28;20048;-75
2022/07/23 13:47:41;;;;;;;15.57;9.55;;;;;;;27.00;70.84;99202.66;8402716;28;20082;-76
2022/07/23 13:51:42;;;;;;;17.17;11.07;;;;;;;28.50;67.40;99196.28;8452400;28;20409;-74
2022/07/23 13:55:44;;;;;;;17.58;10.32;;;;;;;29.19;64.90;99197.22;8419730;28;20047;-76
2022/07/23 13:59:45;;;;;;;15.90;10.02;;;;;;;29.52;64.43;99193.28;8447194;27;20381;-76
2022/07/23 14:03:46;;;;;;;14.15;9.45;;;;;;;28.70;66.38;99205.41;8436990;28;20040;-76
2022/07/23 14:07:49;;;;;;;12.00;9.68;;;;;;;28.66;67.14;99199.09;8402683;28;20135;-76
2022/07/23 14:11:50;;;;;;;12.02;8.68;;;;;;;28.43;67.06;99207.53;8438877;28;20074;-75
2022/07/23 14:15:51;;;;;;;12.25;9.23;;;;;;;28.13;66.62;99212.03;8449670;27;20043;-75
2022/07/23 14:19:52;;;;;;;14.68;9.00;;;;;;;27.57;67.50;99212.94;8446861;28;20570;-76
2022/07/23 14:23:53;;;;;;;11.57;9.23;;;;;;;27.81;66.95;99211.78;8447429;28;20047;-76
2022/07/23 14:27:54;;;;;;;14.90;9.60;;;;;;;27.39;67.16;99213.19;8392375;27;20558;-76
2022/07/23 14:31:56;;;;;;;15.60;9.77;;;;;;;27.22;67.89;99209.50;8438733;27;20051;-76
2022/07/23 14:35:58;;;;;;;15.13;9.38;;;;;;;27.50;66.47;99213.06;8450598;28;20131;-76
2022/07/23 14:40:00;;;;;;;13.25;9.25;;;;;;;27.28;67.79;99218.88;8442741;28;20048;-77
2022/07/23 14:44:01;;;;;;;14.50;10.05;;;;;;;26.88;69.34;99217.06;8449989;27;20066;-77
2022/07/23 14:48:02;;;;;;;13.05;10.15;;;;;;;26.59;70.08;99215.81;8437020;27;20120;-78
2022/07/23 14:52:06;;;;;;;17.80;9.70;;;;;;;26.79;70.59;99214.00;8450157;28;20434;-77
2022/07/23 14:56:07;;;;;;;14.63;10.02;;;;;;;27.69;68.07;99215.16;8434761;28;20055;-77
2022/07/23 15:00:09;;;;;;;12.75;9.98;;;;;;;28.26;66.66;99219.75;8430843;28;20044;-77
2022/07/23 15:04:10;;;;;;;18.83;11.77;;;;;;;28.31;65.79;99222.03;8452850;28;20063;-78
2022/07/23 15:08:10;;;;;;;15.25;11.18;;;;;;;28.18;66.13;99219.09;8453854;28;20059;-77
2022/07/23 15:12:11;;;;;;;21.85;13.57;;;;;;;28.33;63.67;99214.06;8451001;28;20475;-77
2022/07/23 15:16:12;;;;;;;18.10;12.32;;;;;;;28.80;62.14;99221.09;8458369;28;20055;-77
2022/07/23 15:20:13;;;;;;;16.75;11.52;;;;;;;30.32;57.59;99216.75;8412876;28;20442;-76
2022/07/23 15:24:14;;;;;;;17.52;12.15;;;;;;;31.48;54.16;99205.41;8436093;28;20094;-74
2022/07/23 15:28:15;;;;;;;14.25;10.85;;;;;;;31.45;51.17;99202.31;8402100;28;20051;-76
2022/07/23 15:32:16;;;;;;;10.63;9.52;;;;;;;32.09;51.59;99211.41;8436816;27;20044;-80
2022/07/23 15:36:19;;;;;;;15.60;10.15;;;;;;;32.14;50.81;99230.41;8454887;27;20043;-75
2022/07/23 15:40:21;;;;;;;13.18;10.98;;;;;;;31.31;49.95;99235.44;8439850;28;20036;-75
2022/07/23 15:44:22;;;;;;;14.38;9.85;;;;;;;29.77;52.72;99238.00;8451163;27;20506;-75
2022/07/23 15:48:23;;;;;;;14.98;10.38;;;;;;;29.46;52.68;99250.66;8416665;28;20055;-75
2022/07/23 15:52:24;;;;;;;12.05;9.45;;;;;;;29.08;54.38;99263.44;8415228;28;20131;-76
2022/07/23 15:56:25;;;;;;;15.40;10.40;;;;;;;28.46;55.50;99267.78;8367594;28;20051;-74
2022/07/23 16:00:26;;;;;;;15.30;10.95;;;;;;;27.81;57.06;99267.28;8411920;28;20047;-75
2022/07/23 16:04:27;;;;;;;13.02;10.50;;;;;;;27.39;58.13;99273.44;8432295;28;20068;-77
2022/07/23 16:08:28;;;;;;;12.25;10.63;;;;;;;27.12;60.18;99282.50;8418422;28;20515;-76
2022/07/23 16:12:29;;;;;;;13.88;11.55;;;;;;;26.88;61.04;99278.03;8408982;28;20124;-75
2022/07/23 16:16:30;;;;;;;13.70;11.10;;;;;;;26.51;62.06;99280.78;8417795;28;20128;-75
2022/07/23 16:20:31;;;;;;;15.25;11.80;;;;;;;26.28;63.16;99268.34;8419189;28;20043;-75
2022/07/23 16:24:32;;;;;;;13.70;11.02;;;;;;;26.06;62.49;99266.94;8405339;28;20041;-76
2022/07/23 16:28:33;;;;;;;12.10;10.77;;;;;;;25.72;63.35;99257.72;8407858;28;20056;-75
2022/07/23 16:32:34;;;;;;;16.38;11.25;;;;;;;25.52;63.45;99255.47;8416494;28;20495;-76
2022/07/23 16:36:35;;;;;;;13.15;11.32;;;;;;;25.48;63.59;99265.78;8413655;28;20527;-75
2022/07/23 16:40:39;;;;;;;12.02;10.75;;;;;;;25.42;64.39;99261.84;8429581;28;20127;-74
2022/07/23 16:44:41;;;;;;;13.15;10.30;;;;;;;25.38;64.78;99263.81;8408337;28;20052;-74
2022/07/23 16:48:43;;;;;;;13.75;9.95;;;;;;;25.25;65.68;99259.97;8357766;28;20492;-75
2022/07/23 16:52:44;;;;;;;14.38;10.38;;;;;;;25.21;65.74;99260.00;8466122;27;20043;-74
2022/07/23 16:56:45;;;;;;;12.98;10.68;;;;;;;25.14;66.34;99253.72;8452298;27;20047;-74
2022/07/23 17:00:46;;;;;;;16.50;11.27;;;;;;;25.04;67.04;99265.59;8464622;27;20477;-74
2022/07/23 17:04:48;;;;;;;12.68;10.15;;;;;;;24.92;67.29;99277.09;8469623;27;20509;-74
2022/07/23 17:08:49;;;;;;;13.82;10.80;;;;;;;24.72;67.02;99285.81;8461552;28;20141;-74
2022/07/23 17:12:50;;;;;;;17.73;11.30;;;;;;;24.55;67.89;99292.16;8463173;28;20529;-74
2022/07/23 17:16:51;;;;;;;14.45;10.25;;;;;;;24.43;68.45;99289.81;8428383;27;20048;-74
2022/07/23 17:20:52;;;;;;;16.05;9.80;;;;;;;24.48;67.78;99300.44;8464982;27;20118;-74
2022/07/23 17:24:53;;;;;;;13.52;9.98;;;;;;;24.50;67.99;99309.13;8461066;28;20047;-74
2022/07/23 17:28:54;;;;;;;11.18;9.18;;;;;;;24.48;68.07;99303.19;8466972;27;20055;-74
2022/07/23 17:32:55;;;;;;;13.50;10.02;;;;;;;24.39;67.78;99311.09;8458440;28;20131;-73
2022/07/23 17:36:56;;;;;;;12.43;9.50;;;;;;;24.27;67.74;99314.28;8462716;27;20051;-74
2022/07/23 17:40:57;;;;;;;13.00;9.00;;;;;;;24.19;67.53;99318.22;8461399;27;20112;-74
2022/07/23 17:44:59;;;;;;;13.15;8.60;;;;;;;24.03;68.78;99320.53;8358260;27;20048;-74
2022/07/23 17:49:00;;;;;;;14.10;8.57;;;;;;;23.87;69.07;99318.97;8460013;27;20105;-74
2022/07/23 17:53:01;;;;;;;9.55;8.07;;;;;;;23.76;69.48;99326.44;8467001;27;20156;-74
2022/07/23 17:57:03;;;;;;;13.82;8.57;;;;;;;23.65;69.79;99328.38;8459479;27;20044;-75
2022/07/23 18:01:04;;;;;;;9.82;8.23;;;;;;;23.49;69.07;99320.47;8423810;27;20036;-73
2022/07/23 18:05:06;;;;;;;11.60;8.00;;;;;;;23.38;69.90;99324.31;8437976;27;20058;-74
2022/07/23 18:09:09;;;;;;;11.65;7.57;;;;;;;23.31;70.47;99329.81;8396574;27;20051;-74
2022/07/23 18:13:10;;;;;;;12.27;7.50;;;;;;;23.23;70.36;99344.75;8469860;27;20395;-74
2022/07/23 18:17:11;;;;;;;12.40;8.57;;;;;;;23.15;70.27;99350.25;8417877;27;20054;-75
2022/07/23 18:21:12;;;;;;;11.70;7.97;;;;;;;23.10;70.49;99353.34;8466193;27;20072;-74
2022/07/23 18:25:13;;;;;;;11.57;8.20;;;;;;;22.98;71.01;99367.47;8465154;27;20375;-74
2022/07/23 18:29:14;;;;;;;13.85;8.32;;;;;;;22.95;71.01;99368.22;8464346;27;20055;-74
2022/07/23 18:33:15;;;;;;;9.27;8.30;;;;;;;22.92;71.34;99385.50;8459419;28;20057;-74
2022/07/23 18:37:16;;;;;;;12.35;8.32;;;;;;;22.83;71.33;99379.56;8469159;27;20044;-73
2022/07/23 18:41:18;;;;;;;13.55;8.13;;;;;;;22.77;72.33;99372.84;8463702;27;20403;-74
2022/07/23 18:45:20;;;;;;;9.73;8.73;;;;;;;22.67;72.24;99382.56;8379091;28;20368;-74